SKPE/PEI METAR and TAF weather

Enter ICAO airport designator
Station Type Date Time Source
SKPE METAR 2020/01/28 05:00 UTC NOAA

SKPE 280500Z VRB02KT 9999 SCT014 SCT070 21/20 A3016


Station Type Date Time Source
SKPE Decoded METAR 2020/01/28 05:00 UTC NOAA

Pereira / Matecana, Colombia (SKPE) 04-49N 075-44W 1342M
Jan 28, 2020 - 12:00 AM EST / 2020.01.28 0500 UTC
Wind: Variable at 2 MPH (2 KT):0
Visibility: greater than 7 mile(s):0
Sky conditions: partly cloudy
Temperature: 69 F (21 C)
Dew Point: 68 F (20 C)
Relative Humidity: 94%
Pressure (altimeter): 30.16 in. Hg (1021 hPa)
ob: SKPE 280500Z VRB02KT 9999 SCT014 SCT070 21/20 A3016
cycle: 5

Station Type Date Time Source
SKPE TAF 2020/01/28 06:33 UTC NOAA

TAF SKPE 280430Z 2806/2906 VRB03KT 9999 FEW010 SCT070 PROB40
TEMPO 2806/2808 5000 DZ BCFG PROB40
TEMPO 2819/2821 5000 TSRA SCT015CB TX27/2819Z TN18/2811Z

Example: see airport list